Terminal Aerodrome Forecast
Issued by NWS Pocatello, ID

Home | Current Version | Previous Version | Text Only | Print | Product List | Glossary On
Versions: 1 2 3 4 5 6 7 8 9 10 11 12 13 14 15 16 17 18 19 20 21 22 23 24 25 26 27 28 29 30 31 32 33 34
828
FTUS45 KPIH 030204 AAA
TAFIDA
TAF AMD
KIDA 030204Z 0302/0324 21008KT P6SM SCT008 OVC012
     FM030700 20006KT 2SM BR SCT004 BKN008 OVC010
     FM030900 19006KT 1/2SM FZFG SCT004 OVC008
     FM031700 20008KT 1SM BR SCT008 BKN015 OVC025
     FM032000 22010KT P6SM SCT015 BKN025 OVC035=

USA.gov is the U.S. government's official web portal to all federal, state and local government web resources and services.